createdAt,value
2023-01-26T00:02:21.709Z,17.43
2023-01-26T00:04:48.843Z,16.03
2023-01-26T00:07:15.971Z,15.30
2023-01-26T00:09:43.121Z,16.80
2023-01-26T00:12:10.262Z,17.40
2023-01-26T00:14:49.986Z,18.97
2023-01-26T00:17:25.877Z,20.63
2023-01-26T00:19:54.355Z,20.50
2023-01-26T00:22:21.936Z,15.83
2023-01-26T00:24:49.143Z,14.57
2023-01-26T00:27:16.291Z,14.17
2023-01-26T00:29:43.398Z,14.93
2023-01-26T00:32:10.545Z,73.97
2023-01-26T00:34:37.715Z,23.00
2023-01-26T00:37:04.838Z,21.07
2023-01-26T00:39:31.949Z,15.03
2023-01-26T00:42:11.428Z,18.63
2023-01-26T00:44:38.867Z,15.23
2023-01-26T00:47:10.382Z,13.87
2023-01-26T00:49:37.514Z,12.37
2023-01-26T00:52:04.684Z,16.77
2023-01-26T00:54:31.871Z,12.63
2023-01-26T00:56:59.049Z,13.63
2023-01-26T00:59:26.245Z,11.97
2023-01-26T01:01:54.045Z,16.77
2023-01-26T01:04:21.307Z,12.40
2023-01-26T01:06:48.490Z,11.47
2023-01-26T01:09:15.689Z,14.73
2023-01-26T01:11:43.783Z,13.77
2023-01-26T01:14:10.962Z,13.10
2023-01-26T01:16:38.211Z,12.73
2023-01-26T01:19:05.379Z,15.20
2023-01-26T01:21:32.899Z,12.57
2023-01-26T01:24:00.575Z,12.30
2023-01-26T01:26:27.804Z,12.33
2023-01-26T01:28:58.197Z,12.00
2023-01-26T01:31:26.068Z,13.93
2023-01-26T01:33:54.102Z,13.43
2023-01-26T01:36:21.226Z,12.40
2023-01-26T01:38:48.430Z,13.23
2023-01-26T01:41:16.580Z,11.63
2023-01-26T01:43:43.697Z,12.47
2023-01-26T01:46:29.413Z,15.30
2023-01-26T01:49:00.617Z,12.90
2023-01-26T01:51:38.669Z,13.63
2023-01-26T01:54:08.244Z,15.93
2023-01-26T01:56:35.384Z,16.30
2023-01-26T01:59:02.747Z,16.77
2023-01-26T02:01:29.860Z,20.27
2023-01-26T02:03:57.990Z,14.30
2023-01-26T02:06:30.280Z,15.00
2023-01-26T02:08:57.576Z,14.63
2023-01-26T02:11:32.296Z,19.50
2023-01-26T02:13:59.481Z,14.37
2023-01-26T02:16:26.629Z,14.80
2023-01-26T02:18:53.814Z,16.73
2023-01-26T02:21:21.856Z,17.70
2023-01-26T02:23:52.173Z,17.90
2023-01-26T02:26:19.864Z,16.63
2023-01-26T02:28:47.384Z,15.60
2023-01-26T02:31:14.663Z,15.17
2023-01-26T02:33:42.083Z,14.77
2023-01-26T02:36:11.103Z,17.57
2023-01-26T02:38:41.926Z,14.90
2023-01-26T02:41:12.266Z,17.87
2023-01-26T02:43:39.424Z,16.57
2023-01-26T02:46:06.608Z,20.30
2023-01-26T02:48:52.525Z,21.67
2023-01-26T02:51:19.667Z,18.93
2023-01-26T02:53:48.108Z,19.53
2023-01-26T02:56:15.271Z,18.13
2023-01-26T02:58:42.429Z,15.23
2023-01-26T03:01:09.602Z,20.73
2023-01-26T03:03:42.826Z,17.00
2023-01-26T03:06:10.632Z,21.17
2023-01-26T03:08:37.826Z,20.97
2023-01-26T03:11:05.311Z,19.33
2023-01-26T03:13:32.451Z,20.37
2023-01-26T03:16:06.748Z,19.33
2023-01-26T03:18:53.619Z,18.67
2023-01-26T03:21:39.795Z,17.27
2023-01-26T03:24:25.424Z,17.43
2023-01-26T03:27:11.360Z,17.13
2023-01-26T03:29:38.476Z,18.60
2023-01-26T03:32:05.783Z,16.77
2023-01-26T03:34:33.043Z,15.37
2023-01-26T03:37:00.387Z,16.90
2023-01-26T03:39:46.387Z,17.10
2023-01-26T03:42:32.480Z,15.07
2023-01-26T03:45:18.505Z,16.57
2023-01-26T03:48:04.363Z,14.80
2023-01-26T03:50:50.324Z,13.53
2023-01-26T03:53:36.603Z,12.60
2023-01-26T03:56:22.136Z,12.27
2023-01-26T03:58:53.532Z,15.10
2023-01-26T04:01:28.236Z,17.67
2023-01-26T04:04:14.628Z,23.83
2023-01-26T04:07:03.798Z,20.63
2023-01-26T04:09:31.365Z,23.60
2023-01-26T04:11:58.582Z,23.47
2023-01-26T04:14:50.045Z,27.60
2023-01-26T04:17:36.745Z,35.23
2023-01-26T04:20:23.280Z,37.03
2023-01-26T04:22:50.419Z,32.13
2023-01-26T04:25:18.434Z,35.57
2023-01-26T04:27:46.178Z,34.87
2023-01-26T04:30:13.856Z,31.10
2023-01-26T04:32:41.150Z,28.30
2023-01-26T04:35:08.473Z,27.70
2023-01-26T04:37:35.646Z,24.50
2023-01-26T04:40:04.245Z,25.30
2023-01-26T04:42:31.462Z,20.23
2023-01-26T04:44:58.592Z,23.47
2023-01-26T04:47:27.587Z,17.80
2023-01-26T04:49:56.086Z,20.67
2023-01-26T04:52:23.256Z,20.93
2023-01-26T04:54:50.429Z,21.97
2023-01-26T04:57:20.547Z,24.37
2023-01-26T04:59:47.658Z,24.27
2023-01-26T05:02:14.794Z,24.37
2023-01-26T05:04:41.984Z,25.53
2023-01-26T05:07:09.131Z,22.20
2023-01-26T05:09:36.251Z,19.87
2023-01-26T05:12:23.350Z,23.73
2023-01-26T05:14:50.506Z,24.57
2023-01-26T05:17:17.680Z,21.53
2023-01-26T05:19:44.838Z,25.03
2023-01-26T05:22:12.710Z,22.30
2023-01-26T05:24:39.947Z,19.53
2023-01-26T05:27:22.415Z,18.90
2023-01-26T05:29:50.111Z,23.37
2023-01-26T05:32:17.292Z,28.03
2023-01-26T05:34:44.450Z,26.13
2023-01-26T05:37:14.547Z,25.30
2023-01-26T05:39:42.156Z,26.47
2023-01-26T05:42:09.378Z,25.50
2023-01-26T05:44:36.494Z,23.13
2023-01-26T05:47:03.605Z,23.13
2023-01-26T05:49:30.757Z,21.87
2023-01-26T05:51:57.901Z,21.00
2023-01-26T05:54:25.117Z,19.70
2023-01-26T05:56:53.400Z,19.20
2023-01-26T05:59:20.526Z,19.03
2023-01-26T06:01:47.645Z,18.90
2023-01-26T06:04:14.815Z,19.67
2023-01-26T06:06:41.953Z,21.23
2023-01-26T06:09:09.066Z,24.20
2023-01-26T06:11:36.218Z,26.53
2023-01-26T06:14:03.803Z,21.27
2023-01-26T06:16:31.016Z,21.03
2023-01-26T06:18:58.203Z,18.63
2023-01-26T06:21:25.319Z,23.27
2023-01-26T06:23:52.466Z,21.33
2023-01-26T06:26:19.629Z,23.53
2023-01-26T06:28:46.747Z,20.47
2023-01-26T06:31:14.382Z,20.77
2023-01-26T06:33:41.617Z,21.83
2023-01-26T06:36:12.659Z,18.60
2023-01-26T06:38:39.886Z,18.57
2023-01-26T06:41:07.940Z,20.43
2023-01-26T06:43:35.541Z,17.83
2023-01-26T06:46:03.777Z,18.27
2023-01-26T06:48:31.371Z,19.63
2023-01-26T06:50:59.095Z,18.20
2023-01-26T06:53:40.096Z,18.77
2023-01-26T06:56:07.262Z,20.43
2023-01-26T06:58:34.377Z,20.27
2023-01-26T07:01:01.605Z,22.97
2023-01-26T07:03:28.800Z,22.97
2023-01-26T07:05:55.960Z,23.07
2023-01-26T07:08:23.089Z,25.23
2023-01-26T07:10:50.509Z,25.60
2023-01-26T07:13:17.731Z,24.53
2023-01-26T07:15:44.896Z,32.30
2023-01-26T07:18:12.014Z,49.10
2023-01-26T07:20:39.139Z,52.57
2023-01-26T07:23:06.284Z,50.57
2023-01-26T07:25:33.395Z,49.77
2023-01-26T07:28:00.536Z,52.27
2023-01-26T07:30:27.862Z,56.13
2023-01-26T07:32:54.969Z,45.00
2023-01-26T07:35:22.090Z,37.33
2023-01-26T07:37:49.239Z,32.37
2023-01-26T07:40:16.656Z,28.53
2023-01-26T07:42:43.800Z,31.20
2023-01-26T07:45:11.181Z,40.70
2023-01-26T07:47:38.332Z,31.37
2023-01-26T07:50:07.267Z,32.27
2023-01-26T07:52:34.426Z,46.03
2023-01-26T07:55:01.533Z,35.73
2023-01-26T07:57:28.659Z,32.53
2023-01-26T07:59:55.858Z,32.70
2023-01-26T08:02:23.008Z,33.80
2023-01-26T08:04:50.190Z,35.27
2023-01-26T08:07:17.639Z,37.50
2023-01-26T08:09:44.781Z,30.23
2023-01-26T08:12:11.961Z,28.00
2023-01-26T08:14:46.692Z,33.37
2023-01-26T08:17:17.265Z,33.60
2023-01-26T08:19:44.744Z,39.20
2023-01-26T08:22:11.878Z,40.30
2023-01-26T08:24:39.011Z,32.13
2023-01-26T08:27:06.164Z,27.83
2023-01-26T08:29:33.282Z,27.73
2023-01-26T08:32:00.471Z,31.47
2023-01-26T08:34:27.659Z,34.70
2023-01-26T08:36:54.769Z,32.97
2023-01-26T08:39:21.894Z,34.40
2023-01-26T08:41:49.129Z,39.00
2023-01-26T08:44:16.637Z,31.57
2023-01-26T08:46:46.494Z,38.17
2023-01-26T08:49:13.747Z,30.23
2023-01-26T08:51:40.854Z,29.77
2023-01-26T08:54:11.257Z,30.70
2023-01-26T08:56:38.462Z,31.37
2023-01-26T08:59:05.657Z,43.13
2023-01-26T09:01:32.866Z,38.37
2023-01-26T09:04:00.496Z,33.97
2023-01-26T09:06:28.413Z,39.67
2023-01-26T09:08:55.614Z,44.13
2023-01-26T09:11:22.752Z,38.13
2023-01-26T09:13:58.840Z,32.83
2023-01-26T09:16:26.065Z,32.07
2023-01-26T09:18:53.399Z,43.10
2023-01-26T09:21:20.629Z,30.47
2023-01-26T09:23:47.881Z,31.40
2023-01-26T09:26:15.087Z,29.33
2023-01-26T09:28:42.199Z,34.23
2023-01-26T09:31:10.770Z,39.87
2023-01-26T09:33:38.002Z,36.00
2023-01-26T09:36:08.555Z,45.67
2023-01-26T09:38:35.729Z,36.93
2023-01-26T09:41:06.197Z,41.43
2023-01-26T09:43:41.724Z,40.13
2023-01-26T09:46:25.148Z,52.80
2023-01-26T09:48:58.401Z,42.67
2023-01-26T09:51:27.396Z,39.70
2023-01-26T09:53:55.420Z,46.03
2023-01-26T09:56:23.102Z,31.27
2023-01-26T09:59:10.508Z,36.20
2023-01-26T10:01:37.803Z,29.60
2023-01-26T10:04:06.230Z,35.30
2023-01-26T10:06:33.489Z,43.30
2023-01-26T10:09:15.503Z,30.20
2023-01-26T10:11:47.108Z,31.63
2023-01-26T10:14:16.392Z,31.67
2023-01-26T10:16:44.562Z,30.17
2023-01-26T10:19:13.392Z,35.20
2023-01-26T10:21:41.501Z,30.23
2023-01-26T10:24:10.041Z,31.63
2023-01-26T10:26:37.251Z,30.00
2023-01-26T10:29:04.514Z,28.00
2023-01-26T10:31:32.798Z,29.80
2023-01-26T10:34:00.223Z,27.23
2023-01-26T10:36:30.588Z,28.33
2023-01-26T10:39:03.525Z,27.10
2023-01-26T10:41:30.644Z,29.77
2023-01-26T10:44:02.633Z,32.00
2023-01-26T10:46:39.408Z,36.43
2023-01-26T10:49:09.366Z,30.57
2023-01-26T10:51:37.167Z,34.33
2023-01-26T10:54:16.325Z,27.87
2023-01-26T10:56:47.169Z,33.50
2023-01-26T10:59:15.989Z,40.00
2023-01-26T11:01:53.306Z,35.77
2023-01-26T11:04:20.520Z,46.67
2023-01-26T11:06:47.681Z,45.13
2023-01-26T11:09:14.812Z,38.20
2023-01-26T11:11:42.121Z,28.00
2023-01-26T11:14:27.147Z,32.43
2023-01-26T11:17:08.614Z,26.13
2023-01-26T11:19:55.728Z,28.17
2023-01-26T11:22:28.953Z,32.00
2023-01-26T11:25:09.097Z,27.73
2023-01-26T11:27:47.490Z,29.13
2023-01-26T11:30:23.678Z,34.70
2023-01-26T11:32:59.743Z,36.17
2023-01-26T11:35:42.111Z,24.70
2023-01-26T11:38:15.286Z,21.90
2023-01-26T11:40:47.970Z,24.00
2023-01-26T11:43:30.463Z,26.03
2023-01-26T11:46:17.860Z,24.73
2023-01-26T11:49:04.060Z,22.73
2023-01-26T11:51:37.064Z,33.17
2023-01-26T11:54:22.212Z,27.33
2023-01-26T11:56:51.024Z,25.13
2023-01-26T11:59:37.103Z,23.20
2023-01-26T12:02:16.590Z,37.20
2023-01-26T12:04:45.447Z,27.73
2023-01-26T12:07:13.944Z,22.43
2023-01-26T12:09:43.519Z,21.27
2023-01-26T12:12:11.502Z,24.53
2023-01-26T12:14:46.073Z,25.87
2023-01-26T12:17:31.868Z,38.27
2023-01-26T12:20:19.758Z,41.73
2023-01-26T12:22:50.423Z,32.97
2023-01-26T12:25:23.712Z,41.13
2023-01-26T12:27:54.379Z,48.57
2023-01-26T12:30:26.377Z,39.27
2023-01-26T12:32:53.669Z,29.13
2023-01-26T12:35:23.724Z,33.27
2023-01-26T12:38:08.705Z,27.37
2023-01-26T12:40:56.021Z,23.83
2023-01-26T12:43:33.604Z,31.53
2023-01-26T12:46:00.964Z,30.50
2023-01-26T12:48:48.469Z,37.23
2023-01-26T12:51:17.547Z,36.57
2023-01-26T12:53:47.872Z,43.37
2023-01-26T12:56:44.351Z,36.73
2023-01-26T12:59:46.277Z,30.27
2023-01-26T13:02:16.234Z,34.50
2023-01-26T13:04:44.029Z,26.10
2023-01-26T13:07:26.372Z,24.07
2023-01-26T13:10:12.725Z,44.80
2023-01-26T13:12:47.017Z,38.60
2023-01-26T13:15:14.768Z,51.43
2023-01-26T13:17:42.863Z,67.30
2023-01-26T13:20:36.309Z,55.33
2023-01-26T13:23:03.459Z,47.50
2023-01-26T13:25:33.757Z,51.30
2023-01-26T13:28:01.702Z,38.77
2023-01-26T13:30:31.727Z,44.73
2023-01-26T13:33:05.070Z,47.27
2023-01-26T13:35:32.284Z,38.87
2023-01-26T13:38:08.113Z,50.63
2023-01-26T13:40:36.362Z,63.03
2023-01-26T13:43:06.111Z,52.23
2023-01-26T13:45:39.375Z,51.30
2023-01-26T13:48:08.193Z,56.53
2023-01-26T13:50:37.781Z,42.83
2023-01-26T13:53:23.593Z,47.77
2023-01-26T13:55:51.416Z,42.10
2023-01-26T13:58:18.778Z,42.87
2023-01-26T14:01:05.243Z,59.77
2023-01-26T14:03:32.470Z,130.00
2023-01-26T14:06:00.393Z,92.07
2023-01-26T14:08:27.612Z,60.63
2023-01-26T14:10:54.818Z,45.63
2023-01-26T14:13:28.401Z,57.37
2023-01-26T14:16:00.514Z,49.67
2023-01-26T14:18:27.764Z,100.77
2023-01-26T14:21:18.227Z,86.23
2023-01-26T14:23:45.499Z,88.73
2023-01-26T14:26:15.631Z,70.83
2023-01-26T14:28:43.315Z,55.80
2023-01-26T14:31:11.957Z,45.73
2023-01-26T14:33:39.260Z,49.10
2023-01-26T14:36:06.759Z,48.10
2023-01-26T14:38:44.313Z,42.93
2023-01-26T14:41:14.155Z,72.37
2023-01-26T14:43:41.277Z,57.43
2023-01-26T14:46:10.138Z,61.30
2023-01-26T14:48:45.358Z,59.43
2023-01-26T14:51:30.632Z,39.50
2023-01-26T14:53:58.677Z,38.13
2023-01-26T14:56:36.510Z,33.20
2023-01-26T14:59:03.736Z,35.13
2023-01-26T15:01:30.891Z,47.37
2023-01-26T15:03:59.466Z,44.43
2023-01-26T15:06:28.425Z,35.07
2023-01-26T15:08:57.066Z,34.43
2023-01-26T15:11:55.812Z,31.33
2023-01-26T15:14:33.107Z,34.00
2023-01-26T15:17:00.512Z,34.53
2023-01-26T15:19:27.776Z,37.20
2023-01-26T15:21:54.904Z,40.13
2023-01-26T15:24:22.099Z,43.60
2023-01-26T15:26:50.071Z,48.47
2023-01-26T15:29:32.417Z,54.30
2023-01-26T15:31:59.733Z,54.87
2023-01-26T15:34:36.915Z,54.27
2023-01-26T15:37:22.754Z,59.23
2023-01-26T15:39:49.901Z,49.00
2023-01-26T15:42:17.235Z,46.23
2023-01-26T15:44:44.354Z,77.83
2023-01-26T15:47:12.188Z,76.03
2023-01-26T15:49:39.428Z,73.20
2023-01-26T15:52:24.860Z,85.80
2023-01-26T15:54:52.547Z,76.43
2023-01-26T15:57:19.827Z,70.70
2023-01-26T15:59:46.989Z,77.77
2023-01-26T16:02:17.884Z,74.60
2023-01-26T16:04:45.514Z,77.57
2023-01-26T16:07:13.663Z,78.33
2023-01-26T16:09:41.170Z,73.97
2023-01-26T16:12:31.647Z,79.07
2023-01-26T16:14:59.433Z,74.73
2023-01-26T16:17:26.614Z,86.20
2023-01-26T16:19:53.773Z,75.63
2023-01-26T16:22:20.961Z,71.03
2023-01-26T16:24:48.130Z,68.33
2023-01-26T16:27:15.258Z,77.07
2023-01-26T16:29:42.393Z,120.03
2023-01-26T16:32:16.065Z,132.67
2023-01-26T16:34:43.204Z,134.10
2023-01-26T16:37:10.333Z,165.63
2023-01-26T16:39:37.620Z,147.40
2023-01-26T16:42:04.754Z,135.20
2023-01-26T16:44:31.930Z,136.27
2023-01-26T16:46:59.076Z,133.10
2023-01-26T16:49:26.900Z,135.77
2023-01-26T16:51:54.051Z,124.57
2023-01-26T16:54:21.196Z,127.83
2023-01-26T16:56:48.376Z,129.60
2023-01-26T16:59:15.497Z,140.50
2023-01-26T17:01:42.660Z,134.83
2023-01-26T17:04:10.417Z,131.07
2023-01-26T17:06:37.572Z,123.20
2023-01-26T17:09:05.011Z,125.47
2023-01-26T17:11:32.194Z,138.27
2023-01-26T17:13:59.437Z,127.30
2023-01-26T17:16:33.042Z,130.70
2023-01-26T17:19:00.273Z,130.90
2023-01-26T17:21:27.452Z,119.03
2023-01-26T17:23:55.600Z,121.60
2023-01-26T17:26:22.963Z,124.23
2023-01-26T17:28:50.674Z,115.17
2023-01-26T17:31:18.607Z,93.63
2023-01-26T17:33:46.428Z,86.17
2023-01-26T17:36:14.041Z,95.50
2023-01-26T17:38:41.273Z,99.23
2023-01-26T17:41:08.479Z,109.30
2023-01-26T17:43:35.640Z,126.80
2023-01-26T17:46:09.856Z,85.43
2023-01-26T17:48:39.959Z,64.40
2023-01-26T17:51:08.087Z,64.20
2023-01-26T17:53:38.821Z,66.00
2023-01-26T17:56:08.425Z,78.17
2023-01-26T17:58:35.767Z,70.70
2023-01-26T18:01:02.979Z,76.77
2023-01-26T18:03:30.125Z,101.87
2023-01-26T18:05:57.698Z,82.63
2023-01-26T18:08:24.985Z,105.23
2023-01-26T18:10:57.702Z,97.43
2023-01-26T18:13:24.856Z,97.87
2023-01-26T18:15:52.416Z,116.87
2023-01-26T18:18:19.524Z,118.40
2023-01-26T18:20:46.676Z,111.73
2023-01-26T18:23:13.801Z,110.57
2023-01-26T18:25:41.143Z,127.43
2023-01-26T18:28:08.394Z,136.53
2023-01-26T18:30:35.553Z,131.93
2023-01-26T18:33:02.788Z,141.03
2023-01-26T18:35:29.918Z,144.50
2023-01-26T18:37:57.106Z,131.07
2023-01-26T18:40:24.439Z,84.70
2023-01-26T18:42:54.428Z,74.80
2023-01-26T18:45:21.604Z,67.93
2023-01-26T18:47:49.282Z,52.33
2023-01-26T18:50:16.763Z,49.30
2023-01-26T18:52:43.901Z,66.13
2023-01-26T18:55:11.728Z,76.27
2023-01-26T18:57:38.996Z,81.23
2023-01-26T19:00:06.858Z,111.50
2023-01-26T19:02:38.966Z,94.63
2023-01-26T19:05:08.933Z,81.77
2023-01-26T19:07:36.066Z,86.63
2023-01-26T19:10:04.889Z,93.20
2023-01-26T19:12:32.205Z,78.40
2023-01-26T19:14:59.368Z,83.47
2023-01-26T19:17:26.505Z,71.07
2023-01-26T19:19:53.712Z,70.80
2023-01-26T19:22:21.538Z,77.23
2023-01-26T19:24:48.705Z,86.23
2023-01-26T19:27:15.890Z,102.47
2023-01-26T19:29:43.012Z,107.43
2023-01-26T19:32:10.246Z,113.63
2023-01-26T19:34:37.485Z,84.37
2023-01-26T19:37:04.779Z,92.97
2023-01-26T19:39:31.976Z,108.13
2023-01-26T19:41:59.163Z,95.13
2023-01-26T19:44:26.359Z,109.60
2023-01-26T19:46:54.478Z,143.33
2023-01-26T19:49:21.786Z,139.17
2023-01-26T19:51:49.146Z,132.03
2023-01-26T19:54:16.288Z,127.37
2023-01-26T19:56:43.496Z,131.27
2023-01-26T19:59:11.640Z,140.33
2023-01-26T20:01:38.947Z,131.40
2023-01-26T20:04:07.263Z,148.87
2023-01-26T20:06:34.728Z,131.87
2023-01-26T20:09:03.508Z,125.80
2023-01-26T20:11:30.782Z,120.27
2023-01-26T20:13:58.409Z,127.23
2023-01-26T20:16:28.094Z,120.63
2023-01-26T20:18:55.971Z,147.70
2023-01-26T20:21:23.329Z,134.13
2023-01-26T20:23:54.994Z,129.93
2023-01-26T20:26:22.958Z,138.70
2023-01-26T20:28:50.159Z,141.53
2023-01-26T20:31:18.451Z,141.60
2023-01-26T20:33:47.700Z,139.20
2023-01-26T20:36:16.616Z,144.27
2023-01-26T20:38:43.768Z,149.10
2023-01-26T20:41:11.864Z,144.13
2023-01-26T20:43:41.395Z,151.77
2023-01-26T20:46:09.473Z,153.33
2023-01-26T20:48:36.738Z,180.20
2023-01-26T20:51:11.323Z,190.17
2023-01-26T20:53:38.699Z,188.77
2023-01-26T20:56:09.031Z,217.33
2023-01-26T20:58:36.644Z,128.63
2023-01-26T21:01:05.425Z,120.47
2023-01-26T21:03:32.938Z,150.50
2023-01-26T21:06:00.170Z,149.53
2023-01-26T21:08:27.328Z,136.87
2023-01-26T21:10:54.513Z,117.90
2023-01-26T21:13:21.729Z,86.40
2023-01-26T21:15:52.731Z,75.80
2023-01-26T21:18:19.913Z,80.37
2023-01-26T21:20:57.300Z,82.10
2023-01-26T21:23:24.609Z,105.10
2023-01-26T21:25:57.574Z,99.33
2023-01-26T21:28:24.688Z,104.17
2023-01-26T21:31:04.253Z,101.20
2023-01-26T21:33:32.040Z,99.83
2023-01-26T21:35:59.520Z,90.17
2023-01-26T21:38:26.672Z,94.40
2023-01-26T21:41:03.237Z,99.93
2023-01-26T21:43:30.428Z,92.90
2023-01-26T21:45:57.933Z,82.83
2023-01-26T21:48:28.249Z,101.27
2023-01-26T21:51:14.464Z,81.20
2023-01-26T21:53:41.594Z,138.50
2023-01-26T21:56:08.775Z,122.07
2023-01-26T21:58:54.281Z,127.87
2023-01-26T22:01:21.614Z,118.20
2023-01-26T22:03:48.878Z,121.80
2023-01-26T22:06:16.053Z,118.97
2023-01-26T22:08:43.164Z,107.87
2023-01-26T22:11:10.343Z,90.67
2023-01-26T22:13:37.493Z,99.03
2023-01-26T22:16:05.428Z,94.50
2023-01-26T22:18:32.555Z,133.87
2023-01-26T22:20:59.775Z,127.37
2023-01-26T22:23:26.930Z,132.50
2023-01-26T22:25:54.078Z,128.83
2023-01-26T22:28:21.259Z,129.27
2023-01-26T22:30:48.447Z,162.23
2023-01-26T22:33:15.687Z,156.53
2023-01-26T22:35:42.874Z,162.37
2023-01-26T22:38:10.130Z,141.50
2023-01-26T22:40:38.088Z,224.33
2023-01-26T22:43:05.252Z,224.80
2023-01-26T22:45:32.506Z,146.17
2023-01-26T22:47:59.678Z,163.13
2023-01-26T22:50:26.855Z,149.00
2023-01-26T22:52:53.973Z,158.87
2023-01-26T22:55:21.110Z,149.13
2023-01-26T22:57:48.267Z,135.13
2023-01-26T23:00:15.508Z,127.43
2023-01-26T23:02:42.650Z,127.40
2023-01-26T23:05:09.885Z,120.60
2023-01-26T23:07:37.015Z,104.40
2023-01-26T23:10:04.249Z,126.97
2023-01-26T23:12:31.398Z,127.60
2023-01-26T23:14:58.511Z,128.23
2023-01-26T23:17:25.634Z,142.10
2023-01-26T23:19:55.098Z,139.67
2023-01-26T23:22:22.296Z,120.03
2023-01-26T23:25:09.830Z,129.77
2023-01-26T23:27:36.955Z,122.83
2023-01-26T23:30:04.193Z,121.13
2023-01-26T23:32:31.331Z,120.70
2023-01-26T23:34:58.577Z,129.33
2023-01-26T23:37:25.685Z,118.90
2023-01-26T23:39:52.833Z,112.83
2023-01-26T23:42:19.968Z,121.80
2023-01-26T23:44:47.114Z,118.40
2023-01-26T23:47:14.359Z,117.57
2023-01-26T23:49:41.528Z,113.10
2023-01-26T23:52:08.640Z,91.10
2023-01-26T23:54:35.810Z,100.03
2023-01-26T23:57:02.960Z,97.23
2023-01-26T23:59:31.152Z,96.60
